createdAt,value
2019-02-05T00:00:23.026Z,83.44
2019-02-05T00:01:22.986Z,84.06
2019-02-05T00:02:22.982Z,83.75
2019-02-05T00:03:22.972Z,83.65
2019-02-05T00:04:22.958Z,83.65
2019-02-05T00:05:22.956Z,84.38
2019-02-05T00:06:22.953Z,83.75
2019-02-05T00:07:22.924Z,84.38
2019-02-05T00:08:22.913Z,84.69
2019-02-05T00:09:22.900Z,84.59
2019-02-05T00:10:22.916Z,84.59
2019-02-05T00:11:22.889Z,84.90
2019-02-05T00:12:22.871Z,83.86
2019-02-05T00:13:22.859Z,83.86
2019-02-05T00:14:22.854Z,84.48
2019-02-05T00:15:22.862Z,84.90
2019-02-05T00:16:22.850Z,84.94
2019-02-05T00:17:22.826Z,84.73
2019-02-05T00:18:22.805Z,84.83
2019-02-05T00:19:22.804Z,84.83
2019-02-05T00:20:22.787Z,85.31
2019-02-05T00:21:22.790Z,85.77
2019-02-05T00:22:22.770Z,85.25
2019-02-05T00:23:22.757Z,85.63
2019-02-05T00:24:22.755Z,85.77
2019-02-05T00:25:22.789Z,85.83
2019-02-05T00:26:22.719Z,86.08
2019-02-05T00:27:22.711Z,86.40
2019-02-05T00:28:22.705Z,86.91
2019-02-05T00:29:22.701Z,87.33
2019-02-05T00:30:22.702Z,87.12
2019-02-05T00:31:22.669Z,86.81
2019-02-05T00:32:22.676Z,87.23
2019-02-05T00:33:22.646Z,87.65
2019-02-05T00:34:22.645Z,87.33
2019-02-05T00:35:22.638Z,87.96
2019-02-05T00:36:22.644Z,88.27
2019-02-05T00:37:22.610Z,88.31
2019-02-05T00:38:22.593Z,89.41
2019-02-05T00:39:22.585Z,89.35
2019-02-05T00:40:22.575Z,89.35
2019-02-05T00:41:22.674Z,89.35
2019-02-05T00:42:22.556Z,89.66
2019-02-05T00:43:22.544Z,89.56
2019-02-05T00:44:22.550Z,90.70
2019-02-05T00:45:22.520Z,91.12
2019-02-05T00:46:22.514Z,91.06
2019-02-05T00:47:22.507Z,91.85
2019-02-05T00:48:22.498Z,92.10
2019-02-05T00:49:22.499Z,92.52
2019-02-05T00:50:22.465Z,91.96
2019-02-05T00:51:22.477Z,92.31
2019-02-05T00:52:22.446Z,93.10
2019-02-05T00:53:22.436Z,93.14
2019-02-05T00:54:22.429Z,92.79
2019-02-05T00:55:22.417Z,93.04
2019-02-05T00:56:22.425Z,93.56
2019-02-05T00:57:22.399Z,93.14
2019-02-05T00:58:22.385Z,93.14
2019-02-05T00:59:22.371Z,93.24
2019-02-05T01:00:22.382Z,93.04
2019-02-05T01:01:22.372Z,94.08
2019-02-05T01:02:22.340Z,93.14
2019-02-05T01:03:22.331Z,94.08
2019-02-05T01:04:22.337Z,93.46
2019-02-05T01:05:22.306Z,93.66
2019-02-05T01:06:22.302Z,94.39
2019-02-05T01:07:22.307Z,93.87
2019-02-05T01:08:22.279Z,94.70
2019-02-05T01:09:22.295Z,94.92
2019-02-05T01:10:22.258Z,95.64
2019-02-05T01:11:22.243Z,96.06
2019-02-05T01:12:22.233Z,96.52
2019-02-05T01:13:22.222Z,96.73
2019-02-05T01:14:22.216Z,97.56
2019-02-05T01:15:22.229Z,97.35
2019-02-05T01:16:22.195Z,97.77
2019-02-05T01:17:22.179Z,99.02
2019-02-05T01:18:22.195Z,98.50
2019-02-05T01:19:22.163Z,99.23
2019-02-05T01:20:22.151Z,98.86
2019-02-05T01:21:22.159Z,98.96
2019-02-05T01:22:22.149Z,99.13
2019-02-05T01:23:22.116Z,99.65
2019-02-05T01:24:22.109Z,99.59
2019-02-05T01:25:22.095Z,99.48
2019-02-05T01:26:28.874Z,99.65
2019-02-05T01:27:23.101Z,98.96
2019-02-05T01:28:22.065Z,98.96
2019-02-05T01:29:22.056Z,99.27
2019-02-05T01:30:22.039Z,98.86
2019-02-05T01:31:22.032Z,99.13
2019-02-05T01:32:22.022Z,98.96
2019-02-05T01:33:22.033Z,99.17
2019-02-05T01:34:21.999Z,98.86
2019-02-05T01:35:22.088Z,99.13
2019-02-05T01:36:21.978Z,99.07
2019-02-05T01:37:21.966Z,98.82
2019-02-05T01:38:21.963Z,99.38
2019-02-05T01:39:21.966Z,99.33
2019-02-05T01:40:21.946Z,99.23
2019-02-05T01:41:21.927Z,99.02
2019-02-05T01:42:21.916Z,99.02
2019-02-05T01:43:21.901Z,98.60
2019-02-05T01:44:21.908Z,99.13
2019-02-05T01:45:21.885Z,99.02
2019-02-05T01:46:21.874Z,98.82
2019-02-05T01:47:21.882Z,99.17
2019-02-05T01:48:21.846Z,98.82
2019-02-05T01:49:21.847Z,98.92
2019-02-05T01:50:21.834Z,98.71
2019-02-05T01:51:21.821Z,99.33
2019-02-05T01:52:21.837Z,99.54
2019-02-05T01:53:21.797Z,99.48
2019-02-05T01:54:21.787Z,99.59
2019-02-05T01:55:21.771Z,99.48
2019-02-05T01:56:21.776Z,99.33
2019-02-05T01:57:21.753Z,99.44
2019-02-05T01:58:21.767Z,99.59
2019-02-05T01:59:21.736Z,99.59
2019-02-05T02:00:21.730Z,99.44
2019-02-05T02:01:21.719Z,99.48
2019-02-05T02:02:21.703Z,99.96
2019-02-05T02:03:21.705Z,99.85
2019-02-05T02:04:21.682Z,99.75
2019-02-05T02:05:21.694Z,99.75
2019-02-05T02:06:21.658Z,99.85
2019-02-05T02:07:21.647Z,99.75
2019-02-05T02:08:21.665Z,99.75
2019-02-05T02:09:21.624Z,99.85
2019-02-05T02:10:21.616Z,99.75
2019-02-05T02:11:21.611Z,99.85
2019-02-05T02:12:21.613Z,99.85
2019-02-05T02:13:21.634Z,99.65
2019-02-05T02:14:21.570Z,99.85
2019-02-05T02:15:21.557Z,99.96
2019-02-05T02:16:21.548Z,99.96
2019-02-05T02:17:21.539Z,99.96
2019-02-05T02:18:21.635Z,99.85
2019-02-05T02:19:21.524Z,99.59
2019-02-05T02:20:21.503Z,99.75
2019-02-05T02:21:21.532Z,99.99
2019-02-05T02:22:21.487Z,99.99
2019-02-05T02:23:21.498Z,99.80
2019-02-05T02:24:21.470Z,99.75
2019-02-05T02:25:21.477Z,99.96
2019-02-05T02:26:21.441Z,99.96
2019-02-05T02:27:21.434Z,99.85
2019-02-05T02:28:21.444Z,99.99
2019-02-05T02:29:21.412Z,99.99
2019-02-05T02:30:21.404Z,99.33
2019-02-05T02:31:21.394Z,99.23
2019-02-05T02:32:21.383Z,99.23
2019-02-05T02:33:21.399Z,99.02
2019-02-05T02:34:21.360Z,98.82
2019-02-05T02:35:21.343Z,99.33
2019-02-05T02:36:21.343Z,99.23
2019-02-05T02:37:21.327Z,99.40
2019-02-05T02:38:21.341Z,99.18
2019-02-05T02:39:21.299Z,99.08
2019-02-05T02:40:21.293Z,98.77
2019-02-05T02:41:21.282Z,98.97
2019-02-05T02:42:21.274Z,98.97
2019-02-05T02:43:21.265Z,98.77
2019-02-05T02:44:21.279Z,98.82
2019-02-05T02:45:21.240Z,98.66
2019-02-05T02:46:21.229Z,98.92
2019-02-05T02:47:21.214Z,99.18
2019-02-05T02:48:21.208Z,98.82
2019-02-05T02:49:21.196Z,99.29
2019-02-05T02:50:21.207Z,99.54
2019-02-05T02:51:21.183Z,99.02
2019-02-05T02:52:21.184Z,99.33
2019-02-05T02:53:21.158Z,99.85
2019-02-05T02:54:21.147Z,99.91
2019-02-05T02:55:21.138Z,99.75
2019-02-05T02:56:21.130Z,99.85
2019-02-05T02:57:21.134Z,99.96
2019-02-05T02:58:21.118Z,99.96
2019-02-05T02:59:21.089Z,99.85
2019-02-05T03:00:21.106Z,99.65
2019-02-05T03:01:21.069Z,99.71
2019-02-05T03:02:21.079Z,99.96
2019-02-05T03:03:21.053Z,99.33
2019-02-05T03:04:21.060Z,99.29
2019-02-05T03:05:21.031Z,99.65
2019-02-05T03:06:21.015Z,99.65
2019-02-05T03:07:21.004Z,99.60
2019-02-05T03:08:20.997Z,99.71
2019-02-05T03:09:21.006Z,99.71
2019-02-05T03:10:20.974Z,99.75
2019-02-05T03:11:20.959Z,99.75
2019-02-05T03:12:20.947Z,99.71
2019-02-05T03:13:20.947Z,99.50
2019-02-05T03:14:20.948Z,99.81
2019-02-05T03:15:20.937Z,99.29
2019-02-05T03:16:20.920Z,99.99
2019-02-05T03:17:20.915Z,99.81
2019-02-05T03:18:20.885Z,99.81
2019-02-05T03:19:20.890Z,99.71
2019-02-05T03:20:20.864Z,99.81
2019-02-05T03:21:20.934Z,99.81
2019-02-05T03:22:20.849Z,99.81
2019-02-05T03:23:20.836Z,99.40
2019-02-05T03:24:20.820Z,99.40
2019-02-05T03:25:20.828Z,99.50
2019-02-05T03:26:20.818Z,99.50
2019-02-05T03:27:20.795Z,99.44
2019-02-05T03:28:20.785Z,99.40
2019-02-05T03:29:20.769Z,99.29
2019-02-05T03:30:20.760Z,99.29
2019-02-05T03:31:20.767Z,99.33
2019-02-05T03:32:20.734Z,99.40
2019-02-05T03:33:20.731Z,98.77
2019-02-05T03:34:20.717Z,98.87
2019-02-05T03:35:20.835Z,98.66
2019-02-05T03:36:20.714Z,98.56
2019-02-05T03:37:20.686Z,98.56
2019-02-05T03:38:20.672Z,99.04
2019-02-05T03:39:20.659Z,99.18
2019-02-05T03:40:20.661Z,98.77
2019-02-05T03:41:20.663Z,98.46
2019-02-05T03:42:20.629Z,98.97
2019-02-05T03:43:20.616Z,98.46
2019-02-05T03:44:20.608Z,98.62
2019-02-05T03:45:20.617Z,99.18
2019-02-05T03:46:20.609Z,99.08
2019-02-05T03:47:20.583Z,98.66
2019-02-05T03:48:20.569Z,99.40
2019-02-05T03:49:20.560Z,99.40
2019-02-05T03:50:20.545Z,98.77
2019-02-05T03:51:20.549Z,98.97
2019-02-05T03:52:20.519Z,98.77
2019-02-05T03:53:20.510Z,99.50
2019-02-05T03:54:20.502Z,99.18
2019-02-05T03:55:20.512Z,99.40
2019-02-05T03:56:20.552Z,98.77
2019-02-05T03:57:30.582Z,99.08
2019-02-05T03:58:21.458Z,98.77
2019-02-05T03:59:20.453Z,99.08
2019-02-05T04:00:20.442Z,98.97
2019-02-05T04:01:20.454Z,98.87
2019-02-05T04:02:20.423Z,98.77
2019-02-05T04:03:20.410Z,99.60
2019-02-05T04:04:20.392Z,99.08
2019-02-05T04:05:20.383Z,98.87
2019-02-05T04:06:20.374Z,99.08
2019-02-05T04:07:20.394Z,98.77
2019-02-05T04:08:20.376Z,99.08
2019-02-05T04:09:20.347Z,99.18
2019-02-05T04:10:20.331Z,98.97
2019-02-05T04:11:20.338Z,99.29
2019-02-05T04:12:20.313Z,98.97
2019-02-05T04:13:20.301Z,99.18
2019-02-05T04:14:20.304Z,98.66
2019-02-05T04:15:20.276Z,99.29
2019-02-05T04:16:20.284Z,98.77
2019-02-05T04:17:20.257Z,98.77
2019-02-05T04:18:20.249Z,98.87
2019-02-05T04:19:20.243Z,99.29
2019-02-05T04:20:20.234Z,99.50
2019-02-05T04:21:20.242Z,99.18
2019-02-05T04:22:20.204Z,98.87
2019-02-05T04:23:20.192Z,98.87
2019-02-05T04:24:20.182Z,99.24
2019-02-05T04:25:20.195Z,99.29
2019-02-05T04:26:20.170Z,98.56
2019-02-05T04:27:20.174Z,98.56
2019-02-05T04:28:20.137Z,99.24
2019-02-05T04:29:20.154Z,98.87
2019-02-05T04:30:20.120Z,98.87
2019-02-05T04:31:20.113Z,98.62
2019-02-05T04:32:20.110Z,98.56
2019-02-05T04:33:20.095Z,99.14
2019-02-05T04:34:20.076Z,98.52
2019-02-05T04:35:20.086Z,98.97
2019-02-05T04:36:20.052Z,99.14
2019-02-05T04:37:20.051Z,98.52
2019-02-05T04:38:20.040Z,98.62
2019-02-05T04:39:20.028Z,98.87
2019-02-05T04:40:20.036Z,98.83
2019-02-05T04:41:20.033Z,98.97
2019-02-05T04:42:20.025Z,98.56
2019-02-05T04:43:20.002Z,98.97
2019-02-05T04:44:19.981Z,98.93
2019-02-05T04:45:19.991Z,97.99
2019-02-05T04:46:19.953Z,99.04
2019-02-05T04:47:19.937Z,99.18
2019-02-05T04:48:19.926Z,99.04
2019-02-05T04:49:19.920Z,98.62
2019-02-05T04:50:19.944Z,99.18
2019-02-05T04:51:19.899Z,99.14
2019-02-05T04:52:19.896Z,99.04
2019-02-05T04:53:19.880Z,98.52
2019-02-05T04:54:19.863Z,98.93
2019-02-05T04:55:19.877Z,98.97
2019-02-05T04:56:19.841Z,99.45
2019-02-05T04:57:19.833Z,99.29
2019-02-05T04:58:19.843Z,99.40
2019-02-05T04:59:19.823Z,99.04
2019-02-05T05:00:19.799Z,98.83
2019-02-05T05:01:19.809Z,98.83
2019-02-05T05:02:19.784Z,98.72
2019-02-05T05:03:19.788Z,98.93
2019-02-05T05:04:19.763Z,98.93
2019-02-05T05:05:19.756Z,98.93
2019-02-05T05:06:19.757Z,98.77
2019-02-05T05:07:19.726Z,98.52
2019-02-05T05:08:19.713Z,99.24
2019-02-05T05:09:19.709Z,99.04
2019-02-05T05:10:19.717Z,98.72
2019-02-05T05:11:19.693Z,99.24
2019-02-05T05:12:19.682Z,99.24
2019-02-05T05:13:19.671Z,98.72
2019-02-05T05:14:19.671Z,98.31
2019-02-05T05:15:19.638Z,99.24
2019-02-05T05:16:19.650Z,99.04
2019-02-05T05:17:19.624Z,99.14
2019-02-05T05:18:19.626Z,98.93
2019-02-05T05:19:19.614Z,98.93
2019-02-05T05:20:19.608Z,99.14
2019-02-05T05:21:19.586Z,99.18
2019-02-05T05:22:19.571Z,99.14
2019-02-05T05:23:19.565Z,98.83
2019-02-05T05:24:19.552Z,99.14
2019-02-05T05:25:19.557Z,98.56
2019-02-05T05:26:19.524Z,98.10
2019-02-05T05:27:19.521Z,99.08
2019-02-05T05:28:19.510Z,99.14
2019-02-05T05:29:19.517Z,98.62
2019-02-05T05:30:19.484Z,98.72
2019-02-05T05:31:19.476Z,99.04
2019-02-05T05:32:19.461Z,98.72
2019-02-05T05:33:19.451Z,98.83
2019-02-05T05:34:19.443Z,99.04
2019-02-05T05:35:19.471Z,98.97
2019-02-05T05:36:19.424Z,98.93
2019-02-05T05:37:19.410Z,99.04
2019-02-05T05:38:19.397Z,98.56
2019-02-05T05:39:19.423Z,99.04
2019-02-05T05:40:19.374Z,98.52
2019-02-05T05:41:19.366Z,98.56
2019-02-05T05:42:19.358Z,99.08
2019-02-05T05:43:19.370Z,99.04
2019-02-05T05:44:19.341Z,99.24
2019-02-05T05:45:19.329Z,99.18
2019-02-05T05:46:19.313Z,99.35
2019-02-05T05:47:19.303Z,99.55
2019-02-05T05:48:19.315Z,99.29
2019-02-05T05:49:19.283Z,99.35
2019-02-05T05:50:21.278Z,99.60
2019-02-05T05:51:19.260Z,99.66
2019-02-05T05:52:19.248Z,99.45
2019-02-05T05:53:19.256Z,99.91
2019-02-05T05:54:19.230Z,99.71
2019-02-05T05:55:19.223Z,99.66
2019-02-05T05:56:19.236Z,99.76
2019-02-05T05:57:19.196Z,99.87
2019-02-05T05:58:23.100Z,99.66
2019-02-05T05:59:19.180Z,99.98
2019-02-05T06:00:19.166Z,99.87
2019-02-05T06:01:19.168Z,99.81
2019-02-05T06:02:19.151Z,99.71
2019-02-05T06:03:19.131Z,99.66
2019-02-05T06:04:19.143Z,99.55
2019-02-05T06:05:19.119Z,99.87
2019-02-05T06:06:19.099Z,99.55
2019-02-05T06:07:19.107Z,99.45
2019-02-05T06:08:19.099Z,99.66
2019-02-05T06:09:19.197Z,99.55
2019-02-05T06:10:19.070Z,99.66
2019-02-05T06:11:19.052Z,99.66
2019-02-05T06:12:19.039Z,99.76
2019-02-05T06:13:19.065Z,99.87
2019-02-05T06:14:19.018Z,99.76
2019-02-05T06:15:19.005Z,99.91
2019-02-05T06:16:19.014Z,99.66
2019-02-05T06:17:18.982Z,99.99
2019-02-05T06:18:18.978Z,99.99
2019-02-05T06:19:18.966Z,99.99
2019-02-05T06:20:18.952Z,99.99
2019-02-05T06:21:18.958Z,99.87
2019-02-05T06:22:18.939Z,99.76
2019-02-05T06:23:18.948Z,99.76
2019-02-05T06:24:18.913Z,99.76
2019-02-05T06:25:18.914Z,99.66
2019-02-05T06:26:20.289Z,99.99
2019-02-05T06:27:18.879Z,99.99
2019-02-05T06:28:18.886Z,99.99
2019-02-05T06:29:18.857Z,99.99
2019-02-05T06:30:18.888Z,99.99
2019-02-05T06:31:18.838Z,99.99
2019-02-05T06:32:18.826Z,99.99
2019-02-05T06:33:18.835Z,99.99
2019-02-05T06:34:18.800Z,99.81
2019-02-05T06:35:18.794Z,99.99
2019-02-05T06:36:18.787Z,99.99
2019-02-05T06:37:18.775Z,99.99
2019-02-05T06:38:18.781Z,99.99
2019-02-05T06:39:18.752Z,99.99
2019-02-05T06:40:18.752Z,99.99
2019-02-05T06:41:18.727Z,99.99
2019-02-05T06:42:18.742Z,99.99
2019-02-05T06:43:18.724Z,99.99
2019-02-05T06:44:18.724Z,99.99
2019-02-05T06:45:18.691Z,99.99
2019-02-05T06:46:18.682Z,99.99
2019-02-05T06:47:18.687Z,99.99
2019-02-05T06:48:18.674Z,99.99
2019-02-05T06:49:18.642Z,99.87
2019-02-05T06:50:18.666Z,99.99
2019-02-05T06:51:18.627Z,99.99
2019-02-05T06:52:18.615Z,99.99
2019-02-05T06:53:18.625Z,99.99
2019-02-05T06:54:18.602Z,99.99
2019-02-05T06:55:18.611Z,99.99
2019-02-05T06:56:18.579Z,99.99
2019-02-05T06:57:18.565Z,99.99
2019-02-05T06:58:18.570Z,99.99
2019-02-05T06:59:18.538Z,99.99
2019-02-05T07:00:18.529Z,99.99
2019-02-05T07:01:18.539Z,99.99
2019-02-05T07:02:18.557Z,99.99
2019-02-05T07:03:18.501Z,99.99
2019-02-05T07:04:18.493Z,99.99
2019-02-05T07:05:18.495Z,99.99
2019-02-05T07:06:18.482Z,99.99
2019-02-05T07:07:18.485Z,99.99
2019-02-05T07:08:18.460Z,99.99
2019-02-05T07:09:18.452Z,99.99
2019-02-05T07:10:18.439Z,99.99
2019-02-05T07:11:18.438Z,99.99
2019-02-05T07:12:18.438Z,99.99
2019-02-05T07:13:18.408Z,99.99
2019-02-05T07:14:18.400Z,99.99
2019-02-05T07:15:18.390Z,99.99
2019-02-05T07:16:18.376Z,99.99
2019-02-05T07:17:18.391Z,99.99
2019-02-05T07:18:18.350Z,99.99
2019-02-05T07:19:18.342Z,99.99
2019-02-05T07:20:18.344Z,99.99
2019-02-05T07:21:18.318Z,99.99
2019-02-05T07:22:18.334Z,99.99
2019-02-05T07:23:18.302Z,99.99
2019-02-05T07:24:18.288Z,99.99
2019-02-05T07:25:18.277Z,99.99
2019-02-05T07:26:18.280Z,99.99
2019-02-05T07:27:18.286Z,99.99
2019-02-05T07:28:18.278Z,99.99
2019-02-05T07:29:18.241Z,99.99
2019-02-05T07:30:18.238Z,99.99
2019-02-05T07:31:18.213Z,99.99
2019-02-05T07:32:18.222Z,99.99
2019-02-05T07:33:18.193Z,99.99
2019-02-05T07:34:21.130Z,99.99
2019-02-05T07:35:18.175Z,99.99
2019-02-05T07:36:18.174Z,99.99
2019-02-05T07:37:18.176Z,99.99
2019-02-05T07:38:18.138Z,99.99
2019-02-05T07:39:18.133Z,99.99
2019-02-05T07:40:18.120Z,99.99
2019-02-05T07:41:18.115Z,99.99
2019-02-05T07:42:18.123Z,99.99
2019-02-05T07:43:18.087Z,99.99
2019-02-05T07:44:18.098Z,99.99
2019-02-05T07:45:18.119Z,99.99
2019-02-05T07:46:18.065Z,99.99
2019-02-05T07:47:18.096Z,99.99
2019-02-05T07:48:18.060Z,99.99
2019-02-05T07:49:18.084Z,99.99
2019-02-05T07:50:18.173Z,99.99
2019-02-05T07:51:18.015Z,99.99
2019-02-05T07:52:17.993Z,99.99
2019-02-05T07:53:17.998Z,99.99
2019-02-05T07:54:17.974Z,99.99
2019-02-05T07:55:17.973Z,99.99
2019-02-05T07:56:17.955Z,99.99
2019-02-05T07:57:17.957Z,99.99
2019-02-05T07:58:17.932Z,99.99
2019-02-05T07:59:17.920Z,99.99
2019-02-05T08:00:17.915Z,99.99
2019-02-05T08:01:17.902Z,99.99
2019-02-05T08:02:17.909Z,99.99
2019-02-05T08:03:17.895Z,99.99
2019-02-05T08:04:17.874Z,99.99
2019-02-05T08:05:17.855Z,99.99
2019-02-05T08:06:17.902Z,99.99
2019-02-05T08:07:17.840Z,99.99
2019-02-05T08:08:17.867Z,99.99
2019-02-05T08:09:17.817Z,99.99
2019-02-05T08:10:17.798Z,99.99
2019-02-05T08:11:17.815Z,99.99
2019-02-05T08:12:17.788Z,99.99
2019-02-05T08:13:17.774Z,99.99
2019-02-05T08:14:17.774Z,99.99
2019-02-05T08:15:17.748Z,99.99
2019-02-05T08:16:17.761Z,99.99
2019-02-05T08:17:17.724Z,99.99
2019-02-05T08:18:17.720Z,99.99
2019-02-05T08:19:17.706Z,99.99
2019-02-05T08:20:17.700Z,99.99
2019-02-05T08:21:17.689Z,99.99
2019-02-05T08:22:17.690Z,99.99
2019-02-05T08:23:17.665Z,99.99
2019-02-05T08:24:17.681Z,99.99
2019-02-05T08:25:17.639Z,99.99
2019-02-05T08:26:17.653Z,99.99
2019-02-05T08:27:17.636Z,99.99
2019-02-05T08:28:17.609Z,99.99
2019-02-05T08:29:21.756Z,99.99
2019-02-05T08:30:17.611Z,99.99
2019-02-05T08:31:17.594Z,99.99
2019-02-05T08:32:17.610Z,99.99
2019-02-05T08:33:17.559Z,99.99
2019-02-05T08:34:17.570Z,99.99
2019-02-05T08:35:17.562Z,99.99
2019-02-05T08:36:17.522Z,99.99
2019-02-05T08:37:17.508Z,99.99
2019-02-05T08:38:17.505Z,99.99
2019-02-05T08:39:18.025Z,99.99
2019-02-05T08:40:17.482Z,99.84
2019-02-05T08:41:17.472Z,99.99
2019-02-05T08:42:17.455Z,99.84
2019-02-05T08:43:17.462Z,99.99
2019-02-05T08:44:17.492Z,99.99
2019-02-05T08:45:17.431Z,99.63
2019-02-05T08:46:17.421Z,99.99
2019-02-05T08:47:17.405Z,99.99
2019-02-05T08:48:17.396Z,99.63
2019-02-05T08:49:17.379Z,99.68
2019-02-05T08:50:17.395Z,99.73
2019-02-05T08:51:17.360Z,99.73
2019-02-05T08:52:17.349Z,99.42
2019-02-05T08:53:17.368Z,99.68
2019-02-05T08:54:17.335Z,99.48
2019-02-05T08:55:17.331Z,99.32
2019-02-05T08:56:17.303Z,99.52
2019-02-05T08:57:17.289Z,99.52
2019-02-05T08:58:17.285Z,99.37
2019-02-05T08:59:17.302Z,99.79
2019-02-05T09:00:17.265Z,99.42
2019-02-05T09:01:17.247Z,99.58
2019-02-05T09:02:17.245Z,99.58
2019-02-05T09:03:17.229Z,99.90
2019-02-05T09:04:17.233Z,99.79
2019-02-05T09:05:17.241Z,99.48
2019-02-05T09:06:17.194Z,99.27
2019-02-05T09:07:17.189Z,99.58
2019-02-05T09:08:17.182Z,99.16
2019-02-05T09:09:17.163Z,99.06
2019-02-05T09:10:17.174Z,99.43
2019-02-05T09:11:17.143Z,99.22
2019-02-05T09:12:18.064Z,99.33
2019-02-05T09:13:17.122Z,98.50
2019-02-05T09:14:17.105Z,98.39
2019-02-05T09:15:28.869Z,98.60
2019-02-05T09:16:18.089Z,98.50
2019-02-05T09:17:17.129Z,98.91
2019-02-05T09:18:17.096Z,98.29
2019-02-05T09:19:17.069Z,98.71
2019-02-05T09:20:17.071Z,98.81
2019-02-05T09:21:17.034Z,98.66
2019-02-05T09:22:17.061Z,98.97
2019-02-05T09:23:17.042Z,98.08
2019-02-05T09:24:17.003Z,98.45
2019-02-05T09:25:17.012Z,98.55
2019-02-05T09:26:16.977Z,97.98
2019-02-05T09:27:16.978Z,98.08
2019-02-05T09:28:17.011Z,98.24
2019-02-05T09:29:16.961Z,98.14
2019-02-05T09:30:16.939Z,97.72
2019-02-05T09:31:16.927Z,98.45
2019-02-05T09:32:16.915Z,97.83
2019-02-05T09:33:16.902Z,97.20
2019-02-05T09:34:16.936Z,97.41
2019-02-05T09:35:16.933Z,97.31
2019-02-05T09:36:16.872Z,97.77
2019-02-05T09:37:16.863Z,97.52
2019-02-05T09:38:16.846Z,98.60
2019-02-05T09:39:16.837Z,98.45
2019-02-05T09:40:16.846Z,98.66
2019-02-05T09:41:16.816Z,98.45
2019-02-05T09:42:16.818Z,98.55
2019-02-05T09:43:16.797Z,98.51
2019-02-05T09:44:16.788Z,97.58
2019-02-05T09:45:16.795Z,97.00
2019-02-05T09:46:16.762Z,97.41
2019-02-05T09:47:16.752Z,97.31
2019-02-05T09:48:16.742Z,97.20
2019-02-05T09:49:16.736Z,97.72
2019-02-05T09:50:16.734Z,97.41
2019-02-05T09:51:16.710Z,97.62
2019-02-05T09:52:16.699Z,97.37
2019-02-05T09:53:16.686Z,97.27
2019-02-05T09:54:16.686Z,97.16
2019-02-05T09:55:16.699Z,97.58
2019-02-05T09:56:16.683Z,97.12
2019-02-05T09:57:16.648Z,97.06
2019-02-05T09:58:16.630Z,95.98
2019-02-05T09:59:16.638Z,96.44
2019-02-05T10:00:16.621Z,96.64
2019-02-05T10:01:16.634Z,96.23
2019-02-05T10:02:16.605Z,96.44
2019-02-05T10:03:16.588Z,96.19
2019-02-05T10:04:16.587Z,96.70
2019-02-05T10:05:16.556Z,96.50
2019-02-05T10:06:16.597Z,96.60
2019-02-05T10:07:16.537Z,96.14
2019-02-05T10:08:16.542Z,95.10
2019-02-05T10:09:16.559Z,95.36
2019-02-05T10:10:16.502Z,95.20
2019-02-05T10:11:16.500Z,95.51
2019-02-05T10:12:16.479Z,95.25
2019-02-05T10:13:16.472Z,95.41
2019-02-05T10:14:16.478Z,95.25
2019-02-05T10:15:16.454Z,95.20
2019-02-05T10:16:16.442Z,94.79
2019-02-05T10:17:16.430Z,94.37
2019-02-05T10:18:16.417Z,94.27
2019-02-05T10:19:16.422Z,94.27
2019-02-05T10:20:16.397Z,93.96
2019-02-05T10:21:16.385Z,93.96
2019-02-05T10:22:16.389Z,93.60
2019-02-05T10:23:16.370Z,93.33
2019-02-05T10:24:16.379Z,93.85
2019-02-05T10:25:16.339Z,93.85
2019-02-05T10:26:16.352Z,93.65
2019-02-05T10:27:16.331Z,93.02
2019-02-05T10:28:16.313Z,93.38
2019-02-05T10:29:16.319Z,93.44
2019-02-05T10:30:16.284Z,93.80
2019-02-05T10:31:16.275Z,92.86
2019-02-05T10:32:16.279Z,93.80
2019-02-05T10:33:16.256Z,94.01
2019-02-05T10:34:16.262Z,94.05
2019-02-05T10:35:16.235Z,93.59
2019-02-05T10:36:16.217Z,94.01
2019-02-05T10:37:16.214Z,94.73
2019-02-05T10:38:16.202Z,94.78
2019-02-05T10:39:16.210Z,94.21
2019-02-05T10:40:16.188Z,93.90
2019-02-05T10:41:16.170Z,94.21
2019-02-05T10:42:16.165Z,94.21
2019-02-05T10:43:16.161Z,93.59
2019-02-05T10:44:16.134Z,94.01
2019-02-05T10:45:16.125Z,94.01
2019-02-05T10:46:16.113Z,94.53
2019-02-05T10:47:16.125Z,94.32
2019-02-05T10:48:16.096Z,93.38
2019-02-05T10:49:16.109Z,94.42
2019-02-05T10:50:16.067Z,93.90
2019-02-05T10:51:16.056Z,93.49
2019-02-05T10:52:16.056Z,93.70
2019-02-05T10:53:16.039Z,94.57
2019-02-05T10:54:16.047Z,94.88
2019-02-05T10:55:16.022Z,94.63
2019-02-05T10:56:16.034Z,94.63
2019-02-05T10:57:15.992Z,94.01
2019-02-05T10:58:15.983Z,94.42
2019-02-05T10:59:16.009Z,94.36
2019-02-05T11:00:15.970Z,94.67
2019-02-05T11:01:15.953Z,94.57
2019-02-05T11:02:15.937Z,94.36
2019-02-05T11:03:15.929Z,94.78
2019-02-05T11:04:15.932Z,94.67
2019-02-05T11:05:15.931Z,95.40
2019-02-05T11:06:15.899Z,95.50
2019-02-05T11:07:15.888Z,94.57
2019-02-05T11:08:15.878Z,94.78
2019-02-05T11:09:15.885Z,93.90
2019-02-05T11:10:15.856Z,94.21
2019-02-05T11:11:15.846Z,93.90
2019-02-05T11:12:15.835Z,93.70
2019-02-05T11:13:18.754Z,94.42
2019-02-05T11:14:15.975Z,94.06
2019-02-05T11:15:15.796Z,93.75
2019-02-05T11:16:15.786Z,93.96
2019-02-05T11:17:15.774Z,93.54
2019-02-05T11:18:15.788Z,94.06
2019-02-05T11:19:15.765Z,93.13
2019-02-05T11:20:15.797Z,93.38
2019-02-05T11:21:15.733Z,93.70
2019-02-05T11:22:15.720Z,93.54
2019-02-05T11:23:15.726Z,93.65
2019-02-05T11:24:15.705Z,93.33
2019-02-05T11:25:15.690Z,93.02
2019-02-05T11:26:15.697Z,92.93
2019-02-05T11:27:15.674Z,93.07
2019-02-05T11:28:15.654Z,93.70
2019-02-05T11:29:15.646Z,92.76
2019-02-05T11:30:20.345Z,93.23
2019-02-05T11:31:16.648Z,93.02
2019-02-05T11:32:15.616Z,92.57
2019-02-05T11:33:15.605Z,92.57
2019-02-05T11:34:15.591Z,92.68
2019-02-05T11:35:15.576Z,92.16
2019-02-05T11:36:15.644Z,91.49
2019-02-05T11:37:15.574Z,92.11
2019-02-05T11:38:15.580Z,91.39
2019-02-05T11:39:15.582Z,92.11
2019-02-05T11:40:15.606Z,91.39
2019-02-05T11:41:15.529Z,91.28
2019-02-05T11:42:15.524Z,91.70
2019-02-05T11:43:15.530Z,91.49
2019-02-05T11:44:15.485Z,91.85
2019-02-05T11:45:15.476Z,91.91
2019-02-05T11:46:15.491Z,90.87
2019-02-05T11:47:15.447Z,91.70
2019-02-05T11:48:15.436Z,91.35
2019-02-05T11:49:15.445Z,91.76
2019-02-05T11:50:15.420Z,91.30
2019-02-05T11:51:15.414Z,90.99
2019-02-05T11:52:15.409Z,89.96
2019-02-05T11:53:15.387Z,90.68
2019-02-05T11:54:15.392Z,89.96
2019-02-05T11:55:15.361Z,90.78
2019-02-05T11:56:15.364Z,90.52
2019-02-05T11:57:15.344Z,89.79
2019-02-05T11:58:15.332Z,90.31
2019-02-05T11:59:15.344Z,90.00
2019-02-05T12:00:15.309Z,90.62
2019-02-05T12:01:15.304Z,90.20
2019-02-05T12:02:15.289Z,90.00
2019-02-05T12:03:15.280Z,90.20
2019-02-05T12:04:15.273Z,90.41
2019-02-05T12:05:15.277Z,89.69
2019-02-05T12:06:15.245Z,89.96
2019-02-05T12:07:15.230Z,90.68
2019-02-05T12:08:18.380Z,89.44
2019-02-05T12:09:15.245Z,89.38
2019-02-05T12:10:15.213Z,90.41
2019-02-05T12:11:15.206Z,89.58
2019-02-05T12:12:15.184Z,90.37
2019-02-05T12:13:15.185Z,90.47
2019-02-05T12:14:15.161Z,89.03
2019-02-05T12:15:15.159Z,90.37
2019-02-05T12:16:15.139Z,90.16
2019-02-05T12:17:15.144Z,90.06
2019-02-05T12:18:15.172Z,90.06
2019-02-05T12:19:15.102Z,89.13
2019-02-05T12:20:15.090Z,89.07
2019-02-05T12:21:15.079Z,88.51
2019-02-05T12:22:15.076Z,90.58
2019-02-05T12:23:15.106Z,90.33
2019-02-05T12:24:15.052Z,90.12
2019-02-05T12:25:15.039Z,89.09
2019-02-05T12:26:15.033Z,88.78
2019-02-05T12:27:15.015Z,89.50
2019-02-05T12:28:15.029Z,89.19
2019-02-05T12:29:15.013Z,88.78
2019-02-05T12:30:14.982Z,88.88
2019-02-05T12:31:14.973Z,88.57
2019-02-05T12:32:14.961Z,89.13
2019-02-05T12:33:14.970Z,89.09
2019-02-05T12:34:14.942Z,88.67
2019-02-05T12:35:14.937Z,88.46
2019-02-05T12:36:14.921Z,87.88
2019-02-05T12:37:14.913Z,88.57
2019-02-05T12:38:14.913Z,88.78
2019-02-05T12:39:14.882Z,89.61
2019-02-05T12:40:14.873Z,88.78
2019-02-05T12:41:14.880Z,88.92
2019-02-05T12:42:14.892Z,88.82
2019-02-05T12:43:14.855Z,88.71
2019-02-05T12:44:14.829Z,90.41
2019-02-05T12:45:14.819Z,89.28
2019-02-05T12:46:14.834Z,90.41
2019-02-05T12:47:14.801Z,91.03
2019-02-05T12:48:14.800Z,90.83
2019-02-05T12:49:15.011Z,90.62
2019-02-05T12:50:14.765Z,90.52
2019-02-05T12:51:14.752Z,90.78
2019-02-05T12:52:14.764Z,90.68